Time;durP1;ratioP1;P1;durP2;ratioP2;P2;SDS_P1;SDS_P2;PMS_P1;PMS_P2;Temp;Humidity;BMP_temperature;BMP_pressure;BME280_temperature;BME280_humidity;BME280_pressure;Samples;Min_cycle;Max_cycle;Signal;HPM_P1;HPM_P2
2022/01/24 00:01:23;;;;;;;96.40;61.10;;;;;;;;;;5097362;28;20043;-76
2022/01/24 00:04:28;;;;;;;99.88;65.03;;;;;;;;;;5097743;28;20491;-76
2022/01/24 00:07:32;;;;;;;101.35;63.00;;;;;;;;;;5097195;28;20047;-75
2022/01/24 00:10:39;;;;;;;102.45;63.78;;;;;;;;;;5097333;28;20043;-75
2022/01/24 00:14:45;;;;;;;111.20;69.38;;;;;;;;;;5097439;28;20490;-76
2022/01/24 00:26:59;;;;;;;102.00;65.32;;;;;;;;;;5097199;28;20050;-75
2022/01/24 00:30:04;;;;;;;103.05;66.22;;;;;;;;;;5097294;28;20063;-75
2022/01/24 00:33:07;;;;;;;94.30;62.10;;;;;;;;;;5097094;28;20059;-76
2022/01/24 00:36:12;;;;;;;93.05;60.47;;;;;;;;;;5097446;28;20388;-75
2022/01/24 00:39:17;;;;;;;93.85;60.67;;;;;;;;;;5097074;28;20035;-75
2022/01/24 00:42:31;;;;;;;90.20;55.03;;;;;;;;;;5093922;28;20043;-75
2022/01/24 00:45:56;;;;;;;80.60;51.72;;;;;;;;;;5093700;28;20051;-76
2022/01/24 00:49:21;;;;;;;80.35;50.80;;;;;;;;;;5093821;28;20391;-75
2022/01/24 00:55:48;;;;;;;79.70;48.83;;;;;;;;;;5094017;28;20051;-75
2022/01/24 00:58:52;;;;;;;78.90;49.97;;;;;;;;;;5093729;28;20043;-75
2022/01/24 01:01:57;;;;;;;76.30;48.42;;;;;;;;;;5093657;28;20039;-75
2022/01/24 01:18:17;;;;;;;50.10;32.72;;;;;;;;;;5093401;28;20047;-75
2022/01/24 01:21:22;;;;;;;50.70;35.83;;;;;;;;;;5093219;28;20043;-76
2022/01/24 01:24:28;;;;;;;67.78;40.78;;;;;;;;;;5093158;28;20063;-75
2022/01/24 01:27:38;;;;;;;70.30;43.30;;;;;;;;;;5092951;28;20043;-75
2022/01/24 01:30:47;;;;;;;71.63;44.95;;;;;;;;;;5093191;28;20067;-75
2022/01/24 01:34:50;;;;;;;73.32;45.72;;;;;;;;;;5092753;28;20510;-76
2022/01/24 01:38:19;;;;;;;81.22;47.42;;;;;;;;;;5093193;28;20047;-76
2022/01/24 01:54:55;;;;;;;73.30;46.65;;;;;;;;;;5091806;28;20047;-76
2022/01/24 01:58:00;;;;;;;71.88;43.65;;;;;;;;;;5092516;28;20039;-75
2022/01/24 02:01:05;;;;;;;68.40;43.78;;;;;;;;;;5092324;28;20043;-75
2022/01/24 02:04:09;;;;;;;66.40;43.95;;;;;;;;;;5092652;28;20039;-75
2022/01/24 02:07:14;;;;;;;62.38;40.58;;;;;;;;;;5092153;28;20051;-75
2022/01/24 02:10:19;;;;;;;66.38;41.72;;;;;;;;;;5092417;28;20047;-75
2022/01/24 02:13:26;;;;;;;65.78;41.25;;;;;;;;;;5092516;28;20507;-75
2022/01/24 02:23:35;;;;;;;52.70;31.83;;;;;;;;;;5091969;28;20055;-75
2022/01/24 02:26:40;;;;;;;49.22;31.08;;;;;;;;;;5091636;28;20039;-75
2022/01/24 02:32:51;;;;;;;61.28;37.45;;;;;;;;;;5091760;28;20047;-75
2022/01/24 02:35:55;;;;;;;54.53;37.33;;;;;;;;;;5092093;28;20050;-75
2022/01/24 02:39:27;;;;;;;59.13;37.78;;;;;;;;;;5091885;28;20495;-75
2022/01/24 02:49:27;;;;;;;62.35;39.42;;;;;;;;;;5064783;28;20388;-75
2022/01/24 02:52:31;;;;;;;59.15;39.05;;;;;;;;;;5091531;28;20043;-76
2022/01/24 02:55:37;;;;;;;57.10;38.30;;;;;;;;;;5091328;28;20039;-75
2022/01/24 02:58:41;;;;;;;58.53;38.85;;;;;;;;;;5091214;28;20046;-76
2022/01/24 03:01:45;;;;;;;52.50;35.47;;;;;;;;;;5091713;28;20039;-76
2022/01/24 03:04:49;;;;;;;55.58;33.55;;;;;;;;;;5091132;28;20051;-75
2022/01/24 03:07:54;;;;;;;55.90;33.58;;;;;;;;;;5078744;28;20055;-75
2022/01/24 03:10:59;;;;;;;27.77;18.77;;;;;;;;;;5091612;28;20039;-75
2022/01/24 03:14:04;;;;;;;21.45;13.52;;;;;;;;;;5091427;28;20432;-76
2022/01/24 03:17:08;;;;;;;25.92;17.83;;;;;;;;;;5091478;28;20047;-76
2022/01/24 03:20:12;;;;;;;25.52;16.98;;;;;;;;;;5091381;28;20502;-76
2022/01/24 03:23:18;;;;;;;19.10;13.73;;;;;;;;;;5091282;28;20051;-76
2022/01/24 03:26:41;;;;;;;10.98;7.93;;;;;;;;;;5078806;28;20110;-76
2022/01/24 03:29:45;;;;;;;19.20;11.40;;;;;;;;;;5090921;28;20617;-76
2022/01/24 03:32:49;;;;;;;17.25;11.00;;;;;;;;;;5091140;28;20396;-76
2022/01/24 03:35:54;;;;;;;12.18;9.25;;;;;;;;;;5090819;28;20047;-76
2022/01/24 03:38:58;;;;;;;13.85;10.05;;;;;;;;;;5090838;28;20034;-76
2022/01/24 03:42:03;;;;;;;11.10;7.32;;;;;;;;;;5091043;28;20051;-77
2022/01/24 03:45:09;;;;;;;13.65;7.80;;;;;;;;;;5090803;28;20040;-76
2022/01/24 03:48:37;;;;;;;10.77;6.75;;;;;;;;;;5090825;28;20048;-76
2022/01/24 03:51:41;;;;;;;10.15;5.80;;;;;;;;;;5070411;28;20051;-77
2022/01/24 03:54:46;;;;;;;9.18;6.43;;;;;;;;;;5090984;28;20391;-76
2022/01/24 03:57:50;;;;;;;9.27;6.03;;;;;;;;;;5078364;28;20036;-76
2022/01/24 04:00:58;;;;;;;9.55;5.95;;;;;;;;;;5090793;28;20341;-76
2022/01/24 04:04:02;;;;;;;7.35;4.63;;;;;;;;;;5090583;28;20036;-76
2022/01/24 04:07:07;;;;;;;5.68;2.90;;;;;;;;;;5090867;28;20028;-76
2022/01/24 04:10:12;;;;;;;5.68;2.10;;;;;;;;;;5090879;28;20468;-76
2022/01/24 04:13:31;;;;;;;3.30;1.70;;;;;;;;;;5090826;28;20033;-76
2022/01/24 04:16:40;;;;;;;3.30;2.05;;;;;;;;;;5091652;28;20044;-76
2022/01/24 04:23:17;;;;;;;1.77;1.48;;;;;;;;;;5094343;28;20036;-77
2022/01/24 04:26:21;;;;;;;3.33;1.40;;;;;;;;;;5094177;28;20036;-74
2022/01/24 04:29:25;;;;;;;1.45;1.20;;;;;;;;;;5081714;28;20043;-75
2022/01/24 04:32:29;;;;;;;4.20;1.88;;;;;;;;;;5094251;28;20032;-75
2022/01/24 04:35:34;;;;;;;2.15;1.45;;;;;;;;;;5094194;28;20032;-75
2022/01/24 04:38:38;;;;;;;2.42;1.50;;;;;;;;;;5094218;28;20032;-75
2022/01/24 04:41:46;;;;;;;1.52;1.33;;;;;;;;;;5094347;28;20048;-77
2022/01/24 04:51:33;;;;;;;2.05;1.40;;;;;;;;;;5094061;28;20036;-74
2022/01/24 04:57:42;;;;;;;2.92;1.20;;;;;;;;;;5093513;28;20036;-76
2022/01/24 05:00:47;;;;;;;1.88;1.23;;;;;;;;;;5093748;28;20594;-76
2022/01/24 05:03:51;;;;;;;2.13;1.17;;;;;;;;;;5093646;28;20036;-76
2022/01/24 05:06:55;;;;;;;1.83;1.00;;;;;;;;;;5093499;28;20036;-76
2022/01/24 05:10:12;;;;;;;3.15;1.30;;;;;;;;;;5093750;28;20048;-76
2022/01/24 05:23:38;;;;;;;1.80;1.45;;;;;;;;;;5093372;28;20032;-76
2022/01/24 05:26:42;;;;;;;1.80;1.05;;;;;;;;;;5093319;28;20028;-76
2022/01/24 05:29:46;;;;;;;2.00;1.10;;;;;;;;;;5093231;28;20052;-76
2022/01/24 05:32:51;;;;;;;2.33;1.10;;;;;;;;;;5092825;28;20044;-75
2022/01/24 05:35:55;;;;;;;1.98;0.68;;;;;;;;;;5093417;28;20044;-76
2022/01/24 05:39:00;;;;;;;3.38;0.90;;;;;;;;;;5092935;28;20032;-77
2022/01/24 05:42:05;;;;;;;2.38;0.80;;;;;;;;;;5093216;28;20044;-76
2022/01/24 05:45:09;;;;;;;1.20;0.80;;;;;;;;;;5093225;28;20036;-75
2022/01/24 05:48:13;;;;;;;2.40;1.20;;;;;;;;;;5080221;28;20048;-77
2022/01/24 05:51:20;;;;;;;3.60;0.77;;;;;;;;;;5093074;28;20040;-76
2022/01/24 05:54:24;;;;;;;1.42;0.73;;;;;;;;;;5093049;28;20377;-74
2022/01/24 05:57:28;;;;;;;1.10;0.68;;;;;;;;;;5092264;28;20040;-76
2022/01/24 06:00:32;;;;;;;2.63;0.70;;;;;;;;;;5092832;28;20032;-76
2022/01/24 06:03:37;;;;;;;1.40;1.17;;;;;;;;;;5092502;28;20040;-76
2022/01/24 06:06:41;;;;;;;1.38;0.60;;;;;;;;;;5092627;28;20582;-76
2022/01/24 06:09:45;;;;;;;1.05;0.93;;;;;;;;;;5092516;28;20047;-75
2022/01/24 06:12:49;;;;;;;1.98;1.10;;;;;;;;;;5092269;28;20040;-75
2022/01/24 06:15:54;;;;;;;1.13;1.02;;;;;;;;;;5079887;28;20047;-75
2022/01/24 06:18:58;;;;;;;2.05;0.70;;;;;;;;;;5092428;28;20036;-76
2022/01/24 06:22:03;;;;;;;1.30;0.77;;;;;;;;;;5092120;28;20032;-75
2022/01/24 06:25:07;;;;;;;1.45;0.60;;;;;;;;;;5092454;28;20040;-75
2022/01/24 06:28:12;;;;;;;5.38;2.40;;;;;;;;;;5092087;28;20052;-76
2022/01/24 06:31:16;;;;;;;2.58;1.52;;;;;;;;;;5068227;28;20032;-76
2022/01/24 06:34:20;;;;;;;2.10;0.90;;;;;;;;;;5092010;28;20118;-76
2022/01/24 06:37:24;;;;;;;2.40;1.17;;;;;;;;;;5091939;28;20032;-77
2022/01/24 06:40:29;;;;;;;2.40;1.30;;;;;;;;;;5091453;28;20040;-76
2022/01/24 06:43:33;;;;;;;2.25;0.70;;;;;;;;;;5080108;28;20043;-76
2022/01/24 06:46:38;;;;;;;4.95;0.88;;;;;;;;;;5091206;28;20468;-76
2022/01/24 06:49:42;;;;;;;6.30;0.88;;;;;;;;;;5079029;28;20040;-71
2022/01/24 06:52:47;;;;;;;3.63;1.63;;;;;;;;;;5091429;28;20036;-72
2022/01/24 06:55:52;;;;;;;3.65;1.60;;;;;;;;;;5091632;28;20047;-72
2022/01/24 06:58:56;;;;;;;3.90;1.20;;;;;;;;;;5091338;28;20036;-72
2022/01/24 07:02:00;;;;;;;4.68;1.65;;;;;;;;;;5091406;28;20040;-72
2022/01/24 07:05:05;;;;;;;5.65;2.85;;;;;;;;;;5091368;28;20032;-74
2022/01/24 07:08:09;;;;;;;10.38;3.08;;;;;;;;;;5091554;28;20040;-74
2022/01/24 07:11:14;;;;;;;4.75;2.10;;;;;;;;;;5091380;28;20054;-74
2022/01/24 07:14:18;;;;;;;8.27;1.80;;;;;;;;;;5091771;28;20028;-75
2022/01/24 07:20:29;;;;;;;3.08;1.30;;;;;;;;;;5091098;28;20040;-76
2022/01/24 07:23:34;;;;;;;7.80;1.65;;;;;;;;;;5090945;28;20040;-72
2022/01/24 07:26:39;;;;;;;7.10;1.80;;;;;;;;;;5091344;28;20040;-74
2022/01/24 07:29:43;;;;;;;5.78;1.45;;;;;;;;;;5091215;28;20040;-74
2022/01/24 07:32:48;;;;;;;5.65;1.10;;;;;;;;;;5078924;28;20368;-75
2022/01/24 07:35:52;;;;;;;6.28;2.08;;;;;;;;;;5090822;28;20067;-73
2022/01/24 07:38:57;;;;;;;4.15;1.70;;;;;;;;;;5090171;28;20482;-72
2022/01/24 07:42:14;;;;;;;8.15;4.72;;;;;;;;;;5090873;28;20040;-73
2022/01/24 07:45:19;;;;;;;10.20;3.28;;;;;;;;;;5090959;28;20032;-75
2022/01/24 07:48:23;;;;;;;5.50;2.40;;;;;;;;;;5090829;28;20060;-73
2022/01/24 07:51:27;;;;;;;4.50;1.75;;;;;;;;;;5080405;28;20032;-75
2022/01/24 07:54:32;;;;;;;3.42;1.90;;;;;;;;;;5094984;28;20040;-74
2022/01/24 07:57:36;;;;;;;6.60;1.70;;;;;;;;;;5094266;28;20028;-75
2022/01/24 08:00:40;;;;;;;4.13;2.47;;;;;;;;;;5094288;28;20032;-75
2022/01/24 08:03:46;;;;;;;7.95;1.90;;;;;;;;;;5094381;28;20040;-75
2022/01/24 08:06:51;;;;;;;7.68;1.85;;;;;;;;;;5094413;28;20491;-74
2022/01/24 08:09:56;;;;;;;6.82;2.05;;;;;;;;;;5094903;28;20051;-73
2022/01/24 08:13:01;;;;;;;6.68;1.60;;;;;;;;;;5082144;28;20472;-76
2022/01/24 08:16:05;;;;;;;6.63;1.60;;;;;;;;;;5094733;28;20044;-75
2022/01/24 08:19:10;;;;;;;7.22;1.92;;;;;;;;;;5094348;28;20028;-75
2022/01/24 08:22:14;;;;;;;9.30;1.77;;;;;;;;;;5094579;28;20032;-75
2022/01/24 08:25:18;;;;;;;8.77;1.83;;;;;;;;;;5081753;28;20032;-74
2022/01/24 08:28:22;;;;;;;3.97;1.50;;;;;;;;;;5094149;28;20471;-73
2022/01/24 08:31:26;;;;;;;10.75;1.92;;;;;;;;;;5093996;28;20365;-72
2022/01/24 08:34:31;;;;;;;13.85;2.20;;;;;;;;;;5093900;28;20051;-74
2022/01/24 08:37:36;;;;;;;12.07;2.75;;;;;;;;;;5094270;28;20051;-74
2022/01/24 08:40:41;;;;;;;9.60;2.30;;;;;;;;;;5094012;28;20032;-73
2022/01/24 08:46:52;;;;;;;7.45;2.20;;;;;;;;;;5094195;28;20372;-78
2022/01/24 08:49:58;;;;;;;7.00;3.25;;;;;;;;;;5094001;28;20372;-75
2022/01/24 08:53:04;;;;;;;7.10;2.00;;;;;;;;;;5093997;28;20041;-74
2022/01/24 08:56:10;;;;;;;7.18;1.92;;;;;;;;;;5081829;28;20044;-76
2022/01/24 08:59:15;;;;;;;5.22;2.10;;;;;;;;;;5069963;28;20044;-72
2022/01/24 09:02:19;;;;;;;6.97;2.03;;;;;;;;;;5080647;28;20237;-73
2022/01/24 09:05:24;;;;;;;6.63;1.70;;;;;;;;;;5094032;28;20040;-74
2022/01/24 09:08:30;;;;;;;14.10;1.40;;;;;;;;;;5093671;28;20492;-74
2022/01/24 09:11:35;;;;;;;18.15;4.20;;;;;;;;;;5093699;28;20032;-76
2022/01/24 09:14:40;;;;;;;5.47;1.75;;;;;;;;;;5081381;28;20050;-76
2022/01/24 09:17:45;;;;;;;9.40;1.60;;;;;;;;;;5093294;28;20036;-74
2022/01/24 09:20:50;;;;;;;4.28;1.30;;;;;;;;;;5093365;28;20040;-74
2022/01/24 09:23:54;;;;;;;8.98;2.00;;;;;;;;;;5093252;28;20036;-73
2022/01/24 09:26:58;;;;;;;7.13;1.80;;;;;;;;;;5092945;28;20036;-74
2022/01/24 09:30:04;;;;;;;10.35;2.47;;;;;;;;;;5093260;28;20376;-78
2022/01/24 09:33:12;;;;;;;5.80;2.30;;;;;;;;;;5093041;28;20043;-74
2022/01/24 09:36:17;;;;;;;7.35;2.35;;;;;;;;;;5092869;28;20035;-72
2022/01/24 09:39:21;;;;;;;10.48;2.20;;;;;;;;;;5080693;28;20036;-74
2022/01/24 09:42:26;;;;;;;13.13;2.10;;;;;;;;;;5092744;28;20404;-72
2022/01/24 09:45:30;;;;;;;6.70;2.47;;;;;;;;;;5080241;28;20388;-70
2022/01/24 09:48:35;;;;;;;18.20;2.17;;;;;;;;;;5092309;28;20032;-71
2022/01/24 09:51:39;;;;;;;8.38;3.25;;;;;;;;;;5092523;28;20036;-74
2022/01/24 09:54:43;;;;;;;4.97;2.00;;;;;;;;;;5079860;28;20036;-73
2022/01/24 09:57:48;;;;;;;8.70;1.75;;;;;;;;;;5080404;28;20052;-73
2022/01/24 10:00:53;;;;;;;8.70;1.63;;;;;;;;;;5092499;28;20035;-73
2022/01/24 10:04:11;;;;;;;8.27;1.70;;;;;;;;;;5092439;28;20040;-72
2022/01/24 10:07:16;;;;;;;6.75;1.80;;;;;;;;;;5092491;28;20027;-74
2022/01/24 10:10:48;;;;;;;5.47;1.73;;;;;;;;;;5092331;28;20523;-72
2022/01/24 10:17:15;;;;;;;4.03;1.70;;;;;;;;;;5091980;28;20028;-74
2022/01/24 10:20:22;;;;;;;6.53;2.33;;;;;;;;;;5092090;28;20044;-73
2022/01/24 10:23:27;;;;;;;12.20;2.00;;;;;;;;;;5092367;28;20044;-72
2022/01/24 10:26:31;;;;;;;9.98;2.20;;;;;;;;;;5092134;28;20040;-75
2022/01/24 10:29:40;;;;;;;6.32;2.40;;;;;;;;;;5079469;28;20048;-73
2022/01/24 10:32:52;;;;;;;8.05;2.28;;;;;;;;;;5091721;28;20040;-75
2022/01/24 10:35:57;;;;;;;7.72;1.63;;;;;;;;;;5091914;28;20036;-75
2022/01/24 10:39:11;;;;;;;7.57;1.50;;;;;;;;;;5091322;28;20036;-75
2022/01/24 10:42:33;;;;;;;6.68;1.80;;;;;;;;;;5091751;28;20032;-76
2022/01/24 10:45:43;;;;;;;6.28;1.85;;;;;;;;;;5091758;28;20036;-75
2022/01/24 10:48:49;;;;;;;5.18;2.30;;;;;;;;;;5091465;28;20044;-74
2022/01/24 10:51:54;;;;;;;8.82;2.28;;;;;;;;;;5091840;28;20032;-76
2022/01/24 10:55:16;;;;;;;8.38;1.80;;;;;;;;;;5091580;28;20024;-75
2022/01/24 10:58:21;;;;;;;8.50;1.75;;;;;;;;;;5091629;28;20044;-74
2022/01/24 11:01:27;;;;;;;7.20;1.95;;;;;;;;;;5091249;28;20040;-76
2022/01/24 11:04:34;;;;;;;6.10;2.85;;;;;;;;;;5091923;28;20048;-75
2022/01/24 11:07:57;;;;;;;5.90;2.20;;;;;;;;;;5078619;28;20043;-75
2022/01/24 11:11:01;;;;;;;5.07;2.60;;;;;;;;;;5079145;28;20047;-74
2022/01/24 11:14:09;;;;;;;4.03;1.90;;;;;;;;;;5091683;28;20040;-74
2022/01/24 11:17:19;;;;;;;8.88;1.80;;;;;;;;;;5091392;28;20032;-76
2022/01/24 11:20:29;;;;;;;9.30;1.90;;;;;;;;;;5078819;28;20040;-74
2022/01/24 11:23:39;;;;;;;5.30;2.38;;;;;;;;;;5091341;28;20183;-75
2022/01/24 11:26:44;;;;;;;4.22;1.83;;;;;;;;;;5090798;28;20056;-75
2022/01/24 11:29:50;;;;;;;5.05;1.80;;;;;;;;;;5076748;28;20048;-73
2022/01/24 11:33:01;;;;;;;4.70;1.55;;;;;;;;;;5089202;28;20040;-73
2022/01/24 11:36:07;;;;;;;4.97;1.60;;;;;;;;;;5090065;28;20039;-74
2022/01/24 11:39:12;;;;;;;7.35;2.35;;;;;;;;;;5089974;28;20036;-75
2022/01/24 11:42:27;;;;;;;5.82;2.20;;;;;;;;;;5090342;28;20036;-74
2022/01/24 11:45:45;;;;;;;13.57;1.63;;;;;;;;;;5091007;28;20040;-72
2022/01/24 11:49:02;;;;;;;3.67;1.52;;;;;;;;;;5090635;28;20047;-72
2022/01/24 11:52:07;;;;;;;9.13;2.67;;;;;;;;;;5091045;28;20032;-76
2022/01/24 11:58:23;;;;;;;3.47;1.70;;;;;;;;;;5090447;28;20384;-75
2022/01/24 12:01:27;;;;;;;;;;;;;;;;;;5090955;28;20032;-75
2022/01/24 12:04:50;;;;;;;5.18;1.27;;;;;;;;;;5090019;28;20378;-74
2022/01/24 12:07:55;;;;;;;5.10;1.80;;;;;;;;;;5089961;28;20044;-75
2022/01/24 12:11:16;;;;;;;4.13;1.50;;;;;;;;;;5090234;28;20055;-76
2022/01/24 12:14:36;;;;;;;4.10;2.25;;;;;;;;;;5090210;28;20040;-75
2022/01/24 12:17:47;;;;;;;2.42;1.40;;;;;;;;;;5090746;28;20048;-74
2022/01/24 12:20:52;;;;;;;4.23;1.17;;;;;;;;;;5078102;28;20468;-75
2022/01/24 12:24:01;;;;;;;7.50;2.00;;;;;;;;;;5090747;28;20040;-74
2022/01/24 12:27:06;;;;;;;2.42;0.90;;;;;;;;;;5078465;28;20040;-75
2022/01/24 12:30:10;;;;;;;2.80;1.27;;;;;;;;;;5090628;28;20448;-74
2022/01/24 12:33:38;;;;;;;3.63;1.98;;;;;;;;;;5090545;28;20377;-76
2022/01/24 12:36:47;;;;;;;6.63;2.13;;;;;;;;;;5090808;28;20048;-75
2022/01/24 12:39:55;;;;;;;5.20;2.70;;;;;;;;;;5094162;28;20036;-73
2022/01/24 12:43:18;;;;;;;3.83;1.48;;;;;;;;;;5094441;28;20051;-75
2022/01/24 12:46:25;;;;;;;12.20;2.03;;;;;;;;;;5094350;28;20032;-75
2022/01/24 12:49:30;;;;;;;6.00;2.03;;;;;;;;;;5081255;28;20076;-73
2022/01/24 12:52:35;;;;;;;9.57;2.38;;;;;;;;;;5094019;28;20028;-73
2022/01/24 12:55:39;;;;;;;9.45;2.10;;;;;;;;;;5093757;28;20032;-73
2022/01/24 12:58:44;;;;;;;6.15;2.88;;;;;;;;;;5093665;28;20032;-73
2022/01/24 13:01:52;;;;;;;3.92;1.50;;;;;;;;;;5093734;28;20036;-76
2022/01/24 13:05:01;;;;;;;4.05;1.33;;;;;;;;;;5093571;28;20036;-73
2022/01/24 13:08:06;;;;;;;5.65;1.60;;;;;;;;;;5093509;28;20040;-73
2022/01/24 13:11:11;;;;;;;6.32;1.55;;;;;;;;;;5081168;28;20044;-72
2022/01/24 13:14:30;;;;;;;5.38;2.30;;;;;;;;;;5093607;28;20040;-74
2022/01/24 13:24:37;;;;;;;2.60;1.10;;;;;;;;;;5093414;28;20040;-73
2022/01/24 13:27:41;;;;;;;5.78;2.00;;;;;;;;;;5092489;28;20044;-75
2022/01/24 13:31:00;;;;;;;4.95;1.98;;;;;;;;;;5092570;28;20039;-74
2022/01/24 13:34:10;;;;;;;6.93;2.10;;;;;;;;;;5092411;28;20048;-75
2022/01/24 13:37:14;;;;;;;2.72;1.42;;;;;;;;;;5092328;28;20364;-74
2022/01/24 13:40:34;;;;;;;5.30;1.95;;;;;;;;;;5080810;28;20040;-74
2022/01/24 13:43:41;;;;;;;7.28;2.30;;;;;;;;;;5093077;28;20039;-75
2022/01/24 13:46:46;;;;;;;4.35;1.92;;;;;;;;;;5093267;28;20048;-78
2022/01/24 13:49:50;;;;;;;5.82;2.20;;;;;;;;;;5080205;28;20056;-72
2022/01/24 13:52:55;;;;;;;4.72;2.38;;;;;;;;;;5092687;28;20032;-71
2022/01/24 13:55:59;;;;;;;4.45;1.75;;;;;;;;;;5093028;28;20040;-71
2022/01/24 13:59:08;;;;;;;5.72;2.22;;;;;;;;;;5092856;28;20036;-72
2022/01/24 14:02:15;;;;;;;10.65;3.72;;;;;;;;;;5092526;28;20044;-74
2022/01/24 14:05:19;;;;;;;7.65;2.35;;;;;;;;;;5092833;28;20040;-73
2022/01/24 14:08:23;;;;;;;2.50;1.83;;;;;;;;;;5092166;28;20036;-76
2022/01/24 14:11:29;;;;;;;12.20;2.08;;;;;;;;;;5092432;28;20040;-72
2022/01/24 14:14:42;;;;;;;13.38;2.17;;;;;;;;;;5092484;28;20047;-72
2022/01/24 14:21:12;;;;;;;4.88;2.30;;;;;;;;;;5092485;28;20232;-74
2022/01/24 14:24:16;;;;;;;8.43;2.33;;;;;;;;;;5080051;28;20044;-74
2022/01/24 14:27:39;;;;;;;3.63;2.17;;;;;;;;;;5092084;28;20483;-73
2022/01/24 14:30:44;;;;;;;2.75;1.33;;;;;;;;;;5092239;28;20397;-74
2022/01/24 14:33:49;;;;;;;4.22;2.42;;;;;;;;;;5091849;28;20040;-72
2022/01/24 14:36:55;;;;;;;8.13;2.60;;;;;;;;;;5079397;28;20032;-74
2022/01/24 14:39:59;;;;;;;4.28;2.20;;;;;;;;;;5091769;28;20032;-74
2022/01/24 14:46:30;;;;;;;10.95;2.60;;;;;;;;;;5062840;28;20480;-73
2022/01/24 14:49:36;;;;;;;8.70;2.00;;;;;;;;;;5091654;28;20052;-74
2022/01/24 14:52:41;;;;;;;4.38;1.70;;;;;;;;;;5091873;28;20040;-74
2022/01/24 14:55:45;;;;;;;4.68;2.22;;;;;;;;;;5091659;28;20036;-79
2022/01/24 14:58:50;;;;;;;6.00;2.65;;;;;;;;;;5091495;28;20040;-75
2022/01/24 15:01:55;;;;;;;6.60;2.40;;;;;;;;;;5090924;28;20040;-76
2022/01/24 15:04:59;;;;;;;4.75;2.13;;;;;;;;;;5091592;28;20511;-76
2022/01/24 15:08:03;;;;;;;5.47;2.20;;;;;;;;;;5078797;28;20032;-73
2022/01/24 15:11:11;;;;;;;3.92;1.60;;;;;;;;;;5091668;28;20040;-73
2022/01/24 15:14:23;;;;;;;4.13;2.50;;;;;;;;;;5091346;28;20036;-72
2022/01/24 15:23:54;;;;;;;3.35;2.20;;;;;;;;;;5091399;28;20032;-74
2022/01/24 15:27:22;;;;;;;6.95;2.80;;;;;;;;;;5091145;28;20036;-73
2022/01/24 15:30:26;;;;;;;5.60;1.80;;;;;;;;;;5090879;28;20039;-73
2022/01/24 15:33:31;;;;;;;5.22;2.08;;;;;;;;;;5090684;28;20056;-76
2022/01/24 15:36:35;;;;;;;14.82;1.65;;;;;;;;;;5091195;28;20040;-77
2022/01/24 15:39:39;;;;;;;7.60;2.20;;;;;;;;;;5091161;28;20056;-76
2022/01/24 15:42:55;;;;;;;5.63;2.10;;;;;;;;;;5091178;28;20040;-81
2022/01/24 15:49:04;;;;;;;4.95;1.25;;;;;;;;;;5091232;28;20044;-71
2022/01/24 15:52:08;;;;;;;4.57;1.25;;;;;;;;;;5090698;28;20036;-69
2022/01/24 15:55:16;;;;;;;4.03;2.00;;;;;;;;;;5090801;28;20036;-70
2022/01/24 15:58:20;;;;;;;5.57;3.70;;;;;;;;;;5090414;28;20040;-70
2022/01/24 16:01:25;;;;;;;5.80;2.95;;;;;;;;;;5077965;28;20036;-68
2022/01/24 16:04:29;;;;;;;8.20;3.70;;;;;;;;;;5090502;28;20361;-71
2022/01/24 16:07:36;;;;;;;7.50;3.63;;;;;;;;;;5078535;28;20052;-72
2022/01/24 16:10:40;;;;;;;15.00;7.03;;;;;;;;;;5090435;28;20052;-72
2022/01/24 16:13:44;;;;;;;15.48;4.70;;;;;;;;;;5092522;28;20036;-81
2022/01/24 16:16:49;;;;;;;7.05;2.50;;;;;;;;;;5070491;28;20035;-71
2022/01/24 16:19:56;;;;;;;7.38;2.80;;;;;;;;;;5094327;28;20048;-70
2022/01/24 16:26:07;;;;;;;7.72;2.53;;;;;;;;;;5094262;28;20032;-71
2022/01/24 16:29:12;;;;;;;12.02;3.42;;;;;;;;;;5081807;28;20048;-71
2022/01/24 16:32:17;;;;;;;9.75;5.10;;;;;;;;;;5094416;28;20049;-70
2022/01/24 16:35:21;;;;;;;8.68;5.32;;;;;;;;;;5094384;28;20056;-70
2022/01/24 16:38:27;;;;;;;10.38;5.07;;;;;;;;;;5094127;28;20468;-75
2022/01/24 16:41:49;;;;;;;5.90;2.47;;;;;;;;;;5094371;28;20028;-72
2022/01/24 16:45:00;;;;;;;13.18;5.05;;;;;;;;;;5094326;28;20564;-70
2022/01/24 16:48:04;;;;;;;5.70;3.33;;;;;;;;;;5093698;28;20028;-71
2022/01/24 16:51:10;;;;;;;6.03;2.88;;;;;;;;;;5093838;28;20769;-72
2022/01/24 16:54:15;;;;;;;9.50;4.05;;;;;;;;;;5094141;28;20040;-72
2022/01/24 16:57:19;;;;;;;7.32;4.00;;;;;;;;;;5093537;28;20040;-69
2022/01/24 17:00:23;;;;;;;12.15;4.72;;;;;;;;;;5094067;28;20465;-68
2022/01/24 17:03:29;;;;;;;9.20;4.25;;;;;;;;;;5093497;28;20032;-69
2022/01/24 17:06:34;;;;;;;11.90;4.60;;;;;;;;;;5093570;28;20032;-75
2022/01/24 17:09:39;;;;;;;14.23;5.65;;;;;;;;;;5081097;28;20048;-70
2022/01/24 17:12:45;;;;;;;7.03;3.50;;;;;;;;;;5093391;28;20040;-70
2022/01/24 17:15:52;;;;;;;10.02;4.72;;;;;;;;;;5093484;28;20044;-71
2022/01/24 17:18:57;;;;;;;11.93;3.25;;;;;;;;;;5081327;28;20055;-71
2022/01/24 17:22:01;;;;;;;6.55;3.03;;;;;;;;;;5093444;28;20043;-70
2022/01/24 17:25:05;;;;;;;13.05;6.05;;;;;;;;;;5092399;28;20048;-70
2022/01/24 17:28:10;;;;;;;11.77;4.07;;;;;;;;;;5093185;28;20036;-69
2022/01/24 17:31:14;;;;;;;6.50;3.70;;;;;;;;;;5093148;28;20044;-71
2022/01/24 17:34:19;;;;;;;8.18;4.10;;;;;;;;;;5093073;28;20048;-70
2022/01/24 17:37:23;;;;;;;10.95;4.30;;;;;;;;;;5092661;28;20143;-73
2022/01/24 17:40:28;;;;;;;11.88;3.88;;;;;;;;;;5080994;28;20044;-73
2022/01/24 17:43:32;;;;;;;8.05;4.50;;;;;;;;;;5092996;28;20507;-71
2022/01/24 17:46:37;;;;;;;11.57;4.32;;;;;;;;;;5092702;28;20036;-73
2022/01/24 17:49:41;;;;;;;6.72;3.50;;;;;;;;;;5092639;28;20063;-71
2022/01/24 17:52:46;;;;;;;10.88;4.35;;;;;;;;;;5093162;28;20036;-70
2022/01/24 17:55:51;;;;;;;13.18;3.08;;;;;;;;;;5080202;28;20044;-72
2022/01/24 17:58:55;;;;;;;8.13;3.78;;;;;;;;;;5092736;28;20396;-72
2022/01/24 18:01:59;;;;;;;6.45;3.47;;;;;;;;;;5092345;28;20043;-73
2022/01/24 18:05:04;;;;;;;6.43;3.25;;;;;;;;;;5092151;28;20032;-79
2022/01/24 18:08:10;;;;;;;11.45;4.45;;;;;;;;;;5068423;28;20039;-73
2022/01/24 18:11:14;;;;;;;9.45;4.20;;;;;;;;;;5079744;28;20059;-71
2022/01/24 18:14:18;;;;;;;6.10;3.78;;;;;;;;;;5092226;28;20032;-72
2022/01/24 18:17:23;;;;;;;22.05;10.45;;;;;;;;;;5092053;28;20032;-70
2022/01/24 18:20:28;;;;;;;15.93;7.32;;;;;;;;;;5092517;28;20035;-71
2022/01/24 18:23:35;;;;;;;12.15;6.07;;;;;;;;;;5092334;28;20046;-70
2022/01/24 18:26:40;;;;;;;10.52;4.68;;;;;;;;;;5091990;28;20040;-71
2022/01/24 18:29:44;;;;;;;10.65;4.90;;;;;;;;;;5092107;28;20039;-73
2022/01/24 18:32:49;;;;;;;13.40;4.82;;;;;;;;;;5091960;28;20044;-71
2022/01/24 18:35:54;;;;;;;9.38;4.32;;;;;;;;;;5090147;28;20043;-71
2022/01/24 18:38:58;;;;;;;16.38;5.93;;;;;;;;;;5091875;28;20040;-71
2022/01/24 18:42:10;;;;;;;13.35;4.40;;;;;;;;;;5091467;28;20043;-71
2022/01/24 18:45:15;;;;;;;8.95;5.57;;;;;;;;;;5091708;28;20384;-73
2022/01/24 18:48:19;;;;;;;10.60;5.50;;;;;;;;;;5091557;28;20373;-74
2022/01/24 18:51:24;;;;;;;17.67;5.70;;;;;;;;;;5091757;28;20055;-74
2022/01/24 18:54:28;;;;;;;7.80;4.35;;;;;;;;;;5091565;28;20040;-74
2022/01/24 18:57:33;;;;;;;13.73;5.57;;;;;;;;;;5091376;28;20036;-74
2022/01/24 19:00:38;;;;;;;14.05;5.20;;;;;;;;;;5091567;28;20040;-74
2022/01/24 19:03:42;;;;;;;8.18;4.32;;;;;;;;;;5091362;28;20036;-74
2022/01/24 19:06:46;;;;;;;8.23;4.43;;;;;;;;;;5091538;28;20040;-74
2022/01/24 19:09:51;;;;;;;11.73;4.75;;;;;;;;;;5067404;28;20308;-72
2022/01/24 19:12:55;;;;;;;15.23;5.68;;;;;;;;;;5079003;28;20043;-74
2022/01/24 19:16:01;;;;;;;14.93;6.60;;;;;;;;;;5078651;28;20048;-74
2022/01/24 19:19:31;;;;;;;12.18;5.82;;;;;;;;;;5091030;28;20044;-73
2022/01/24 19:25:58;;;;;;;11.35;5.25;;;;;;;;;;5091145;28;20032;-74
2022/01/24 19:29:03;;;;;;;11.82;6.30;;;;;;;;;;5091106;28;20040;-76
2022/01/24 19:32:08;;;;;;;9.70;5.28;;;;;;;;;;5091167;28;20048;-76
2022/01/24 19:35:16;;;;;;;12.63;5.20;;;;;;;;;;5091259;28;20040;-75
2022/01/24 19:38:20;;;;;;;17.73;7.75;;;;;;;;;;5091044;28;20048;-75
2022/01/24 19:41:25;;;;;;;8.38;5.35;;;;;;;;;;5090911;28;20036;-75
2022/01/24 19:44:29;;;;;;;7.05;3.20;;;;;;;;;;5091120;28;20051;-74
2022/01/24 19:47:33;;;;;;;11.57;4.95;;;;;;;;;;5093389;28;20039;-74
2022/01/24 19:50:39;;;;;;;7.75;4.00;;;;;;;;;;5095138;28;20048;-74
2022/01/24 19:53:45;;;;;;;9.75;4.05;;;;;;;;;;5094906;28;20472;-74
2022/01/24 19:56:58;;;;;;;6.88;3.92;;;;;;;;;;5095086;28;20479;-74
2022/01/24 20:00:03;;;;;;;11.75;6.40;;;;;;;;;;5095048;28;20028;-74
2022/01/24 20:03:09;;;;;;;10.05;4.70;;;;;;;;;;5095049;28;20040;-74
2022/01/24 20:06:13;;;;;;;5.82;3.60;;;;;;;;;;5082328;28;20032;-73
2022/01/24 20:09:18;;;;;;;7.75;4.50;;;;;;;;;;5094831;28;20040;-74
2022/01/24 20:12:22;;;;;;;14.63;4.60;;;;;;;;;;5094849;28;20372;-74
2022/01/24 20:15:27;;;;;;;11.68;6.10;;;;;;;;;;5094608;28;20037;-75
2022/01/24 20:18:31;;;;;;;12.15;5.15;;;;;;;;;;5094956;28;20044;-74
2022/01/24 20:21:35;;;;;;;7.50;3.53;;;;;;;;;;5095160;28;20032;-74
2022/01/24 20:24:43;;;;;;;11.82;4.93;;;;;;;;;;5094581;28;20044;-75
2022/01/24 20:27:47;;;;;;;11.05;4.45;;;;;;;;;;5094606;28;20285;-75
2022/01/24 20:30:51;;;;;;;15.38;6.55;;;;;;;;;;5094211;28;20476;-74
2022/01/24 20:33:56;;;;;;;8.20;3.78;;;;;;;;;;5093975;28;20056;-74